Time;durP1;ratioP1;P1;durP2;ratioP2;P2;SDS_P1;SDS_P2;PMS_P1;PMS_P2;Temp;Humidity;BMP_temperature;BMP_pressure;BME280_temperature;BME280_humidity;BME280_pressure;Samples;Min_cycle;Max_cycle;Signal;HPM_P1;HPM_P2
2021/08/23 00:02:15;;;;;;;2.08;0.80;;;21.10;59.00;;;;;;2248536;55;20946;-85
2021/08/23 00:04:41;;;;;;;2.30;0.88;;;21.20;59.00;;;;;;2469545;54;21643;-83
2021/08/23 00:07:08;;;;;;;1.87;0.77;;;21.20;59.00;;;;;;2251899;55;20979;-84
2021/08/23 00:09:34;;;;;;;2.25;0.70;;;21.20;59.00;;;;;;2253608;55;21036;-84
2021/08/23 00:12:01;;;;;;;2.95;0.90;;;21.20;59.00;;;;;;2228650;55;21024;-84
2021/08/23 00:14:27;;;;;;;3.10;1.20;;;21.20;59.00;;;;;;2257756;55;21237;-85
2021/08/23 00:16:54;;;;;;;2.67;1.00;;;21.20;59.00;;;;;;2227648;55;20984;-86
2021/08/23 00:19:20;;;;;;;2.47;0.90;;;21.20;58.90;;;;;;2227338;55;20944;-84
2021/08/23 00:21:49;;;;;;;1.85;0.70;;;21.20;58.90;;;;;;2447158;55;21545;-84
2021/08/23 00:24:24;;;;;;;1.83;0.80;;;21.20;58.90;;;;;;2248626;55;21043;-84
2021/08/23 00:26:54;;;;;;;1.87;0.60;;;21.20;58.90;;;;;;2235520;55;20987;-86
2021/08/23 00:29:21;;;;;;;2.37;0.85;;;21.20;58.90;;;;;;2464401;55;20918;-84
2021/08/23 00:31:47;;;;;;;1.27;0.50;;;21.20;58.80;;;;;;2240527;55;20956;-85
2021/08/23 00:34:14;;;;;;;1.48;0.52;;;21.20;58.80;;;;;;2243034;55;21017;-85
2021/08/23 00:36:40;;;;;;;1.65;0.50;;;21.20;58.80;;;;;;2459244;55;20940;-84
2021/08/23 00:39:06;;;;;;;1.45;0.52;;;21.20;58.80;;;;;;2446395;55;20956;-83
2021/08/23 00:41:34;;;;;;;1.85;0.65;;;21.20;58.70;;;;;;2469073;54;22023;-85
2021/08/23 00:44:01;;;;;;;2.15;0.60;;;21.20;58.70;;;;;;2234162;55;20995;-85
2021/08/23 00:46:27;;;;;;;1.60;0.60;;;21.10;58.60;;;;;;2467281;55;21409;-84
2021/08/23 00:48:54;;;;;;;1.37;0.62;;;21.10;58.60;;;;;;2247218;55;21149;-85
2021/08/23 00:51:20;;;;;;;3.12;0.52;;;21.10;58.60;;;;;;2463652;55;20960;-84
2021/08/23 00:53:47;;;;;;;1.87;0.70;;;21.10;58.60;;;;;;2232580;55;21024;-85
2021/08/23 00:56:14;;;;;;;1.77;0.80;;;21.10;58.60;;;;;;2253721;55;20965;-86
2021/08/23 00:58:40;;;;;;;1.80;0.70;;;21.10;58.50;;;;;;2448826;55;20968;-84
2021/08/23 01:01:15;;;;;;;1.95;0.60;;;21.10;58.50;;;;;;2460209;55;20938;-83
2021/08/23 01:03:57;;;;;;;2.35;0.70;;;21.10;58.60;;;;;;2471267;55;20978;-83
2021/08/23 01:06:23;;;;;;;0.77;0.40;;;21.10;58.50;;;;;;2468156;55;21112;-84
2021/08/23 01:08:50;;;;;;;1.70;0.70;;;20.90;58.40;;;;;;2447222;55;21047;-84
2021/08/23 01:11:16;;;;;;;1.95;0.65;;;21.00;58.50;;;;;;2469996;55;21478;-85
2021/08/23 01:13:48;;;;;;;1.65;0.60;;;21.00;58.50;;;;;;2234272;55;21016;-85
2021/08/23 01:16:14;;;;;;;1.73;0.65;;;21.00;58.60;;;;;;2425792;55;21551;-85
2021/08/23 01:18:42;;;;;;;2.25;0.60;;;20.90;58.50;;;;;;2446695;55;20937;-83
2021/08/23 01:21:09;;;;;;;1.80;0.80;;;20.90;58.50;;;;;;2234808;55;22110;-85
2021/08/23 01:23:35;;;;;;;2.28;0.70;;;20.90;58.60;;;;;;2470160;55;20980;-85
2021/08/23 01:26:02;;;;;;;2.15;0.80;;;20.80;58.50;;;;;;2447528;55;21008;-86
2021/08/23 01:28:42;;;;;;;1.65;0.70;;;20.80;58.60;;;;;;2446423;55;20952;-85
2021/08/23 01:32:30;;;;;;;1.90;0.68;;;20.80;58.80;;;;;;2476548;55;21038;-84
2021/08/23 01:34:57;;;;;;;1.52;0.60;;;20.70;58.80;;;;;;2456483;55;20993;-85
2021/08/23 01:37:23;;;;;;;1.25;0.50;;;20.70;58.60;;;;;;2465850;55;21038;-84
2021/08/23 01:39:50;;;;;;;1.75;0.60;;;20.70;58.70;;;;;;2455431;55;21611;-84
2021/08/23 01:42:16;;;;;;;1.60;0.62;;;20.60;58.70;;;;;;2244802;55;20992;-84
2021/08/23 01:44:43;;;;;;;1.50;0.60;;;20.60;58.80;;;;;;2447882;55;22080;-84
2021/08/23 01:47:09;;;;;;;1.92;0.60;;;20.60;58.90;;;;;;2460661;55;20994;-84
2021/08/23 01:49:37;;;;;;;1.73;0.70;;;20.60;58.90;;;;;;2241108;55;20960;-85
2021/08/23 01:52:05;;;;;;;1.42;0.60;;;20.60;58.90;;;;;;2227498;55;20936;-84
2021/08/23 01:54:31;;;;;;;1.85;0.80;;;20.50;59.00;;;;;;2265923;55;21816;-85
2021/08/23 01:56:57;;;;;;;1.83;0.62;;;20.50;59.00;;;;;;2253736;55;20961;-85
2021/08/23 01:59:24;;;;;;;2.10;0.80;;;20.50;59.10;;;;;;2447995;55;20929;-85
2021/08/23 02:01:52;;;;;;;1.48;0.57;;;20.50;59.20;;;;;;2447752;55;21253;-83
2021/08/23 02:04:18;;;;;;;1.73;0.50;;;20.50;59.20;;;;;;2239215;55;20997;-84
2021/08/23 02:06:44;;;;;;;2.00;0.70;;;20.50;59.20;;;;;;2469406;55;20943;-83
2021/08/23 02:09:11;;;;;;;2.83;0.80;;;20.50;59.30;;;;;;2457020;55;21538;-85
2021/08/23 02:11:37;;;;;;;1.83;0.77;;;20.50;59.30;;;;;;2245585;55;21069;-85
2021/08/23 02:14:03;;;;;;;2.90;0.93;;;20.50;60.00;;;;;;2253594;55;22222;-84
2021/08/23 02:16:30;;;;;;;1.65;0.70;;;20.50;59.40;;;;;;2254513;55;20953;-86
2021/08/23 02:18:56;;;;;;;2.03;0.90;;;20.50;59.40;;;;;;2474203;55;21071;-83
2021/08/23 02:21:23;;;;;;;2.12;0.80;;;20.50;59.40;;;;;;2448065;55;22321;-84
2021/08/23 02:23:53;;;;;;;2.10;0.80;;;20.50;59.50;;;;;;2448577;55;21497;-83
2021/08/23 02:26:19;;;;;;;2.97;0.90;;;20.50;59.50;;;;;;2447995;55;21000;-86
2021/08/23 02:28:45;;;;;;;1.58;0.65;;;20.50;59.50;;;;;;2447015;55;20956;-85
2021/08/23 02:31:11;;;;;;;2.35;0.80;;;20.50;59.50;;;;;;2227543;55;20968;-85
2021/08/23 02:33:38;;;;;;;1.90;0.70;;;20.50;59.50;;;;;;2227641;55;20968;-85
2021/08/23 02:36:04;;;;;;;2.45;0.80;;;20.50;59.50;;;;;;2447967;55;21000;-83
2021/08/23 02:38:31;;;;;;;3.15;0.70;;;20.50;59.60;;;;;;2227702;55;21106;-84
2021/08/23 02:40:57;;;;;;;2.03;0.70;;;20.50;59.60;;;;;;2464729;55;22299;-85
2021/08/23 02:43:24;;;;;;;3.55;0.90;;;20.50;59.70;;;;;;2470223;55;20994;-84
2021/08/23 02:45:50;;;;;;;1.80;0.70;;;20.50;59.70;;;;;;2468729;55;21024;-85
2021/08/23 02:48:16;;;;;;;1.65;0.70;;;20.50;59.70;;;;;;2475146;55;21668;-85
2021/08/23 02:50:42;;;;;;;2.62;0.85;;;20.50;59.70;;;;;;2449565;55;20960;-84
2021/08/23 02:53:09;;;;;;;1.95;0.80;;;20.50;59.80;;;;;;2227041;55;22073;-83
2021/08/23 02:55:35;;;;;;;1.98;0.80;;;20.50;59.80;;;;;;2260428;55;21268;-85
2021/08/23 02:58:01;;;;;;;1.62;0.68;;;20.50;59.80;;;;;;2474420;55;21433;-84
2021/08/23 03:00:28;;;;;;;2.20;0.80;;;20.50;59.80;;;;;;2260041;55;21063;-85
2021/08/23 03:02:54;;;;;;;2.12;0.70;;;20.60;59.90;;;;;;2466134;55;20985;-85
2021/08/23 03:05:21;;;;;;;2.22;0.90;;;20.50;59.80;;;;;;2472391;55;20997;-84
2021/08/23 03:07:47;;;;;;;1.40;0.60;;;20.50;59.80;;;;;;2447440;55;20972;-83
2021/08/23 03:10:14;;;;;;;1.60;0.60;;;20.50;59.80;;;;;;2255083;55;20961;-84
2021/08/23 03:12:40;;;;;;;1.95;0.82;;;20.50;59.80;;;;;;2254732;55;20986;-84
2021/08/23 03:15:07;;;;;;;1.60;0.77;;;20.60;60.00;;;;;;2227680;55;22061;-84
2021/08/23 03:17:34;;;;;;;4.05;1.00;;;20.60;60.00;;;;;;2447681;55;20952;-84
2021/08/23 03:20:01;;;;;;;1.85;0.93;;;20.60;60.00;;;;;;2448284;55;21738;-85
2021/08/23 03:22:27;;;;;;;2.10;0.90;;;20.60;60.10;;;;;;2251148;55;21039;-85
2021/08/23 03:24:53;;;;;;;2.58;0.93;;;20.60;60.10;;;;;;2234596;55;22034;-84
2021/08/23 03:27:20;;;;;;;2.80;1.00;;;20.60;60.00;;;;;;2468145;55;21043;-85
2021/08/23 03:29:50;;;;;;;1.95;0.80;;;20.60;60.00;;;;;;2263907;55;20996;-84
2021/08/23 03:32:17;;;;;;;1.85;0.70;;;20.60;60.00;;;;;;2239866;55;20952;-84
2021/08/23 03:34:43;;;;;;;2.05;0.80;;;20.60;60.00;;;;;;2477217;55;20986;-85
2021/08/23 03:37:09;;;;;;;1.25;0.70;;;20.60;60.00;;;;;;2252249;55;21070;-83
2021/08/23 03:39:35;;;;;;;3.92;0.90;;;20.60;60.00;;;;;;2461261;55;20964;-82
2021/08/23 03:42:02;;;;;;;1.60;0.60;;;20.60;60.00;;;;;;2226606;55;21087;-85
2021/08/23 03:44:28;;;;;;;1.50;0.60;;;20.60;60.00;;;;;;2475752;55;20995;-84
2021/08/23 03:46:55;;;;;;;1.70;0.70;;;20.60;60.00;;;;;;2228272;55;20996;-84
2021/08/23 03:49:21;;;;;;;1.37;0.65;;;20.60;60.00;;;;;;2447514;55;20945;-84
2021/08/23 03:51:47;;;;;;;2.58;0.90;;;20.60;60.00;;;;;;2249395;55;21108;-84
2021/08/23 03:54:14;;;;;;;2.55;0.93;;;20.60;60.00;;;;;;2459641;55;21947;-84
2021/08/23 03:56:40;;;;;;;2.22;0.98;;;20.60;59.90;;;;;;2447608;55;21008;-83
2021/08/23 03:59:06;;;;;;;2.00;0.70;;;20.60;59.90;;;;;;2474453;55;20945;-82
2021/08/23 04:01:33;;;;;;;3.55;0.80;;;20.60;59.90;;;;;;2447025;55;21004;-83
2021/08/23 04:03:59;;;;;;;2.55;0.70;;;20.60;59.90;;;;;;2259263;55;20964;-85
2021/08/23 04:06:25;;;;;;;3.58;0.90;;;20.60;59.90;;;;;;2451538;55;20952;-84
2021/08/23 04:08:51;;;;;;;1.45;0.60;;;20.60;59.90;;;;;;2249692;55;20977;-84
2021/08/23 04:11:18;;;;;;;1.67;0.70;;;20.60;59.90;;;;;;2463086;54;21976;-84
2021/08/23 04:13:44;;;;;;;3.03;1.10;;;20.60;59.90;;;;;;2462779;55;21432;-84
2021/08/23 04:16:11;;;;;;;2.30;0.88;;;20.60;60.00;;;;;;2227386;55;22206;-84
2021/08/23 04:18:38;;;;;;;3.40;1.00;;;20.70;60.00;;;;;;2475502;55;20978;-85
2021/08/23 04:21:04;;;;;;;3.15;0.77;;;20.60;59.90;;;;;;2227208;55;20996;-82
2021/08/23 04:23:33;;;;;;;2.20;0.90;;;20.60;59.90;;;;;;2226871;55;21012;-83
2021/08/23 04:25:59;;;;;;;2.50;1.00;;;20.60;59.90;;;;;;2448338;55;20952;-83
2021/08/23 04:28:28;;;;;;;2.08;0.73;;;20.60;59.90;;;;;;2258186;55;21130;-83
2021/08/23 04:30:54;;;;;;;2.95;0.88;;;20.60;59.90;;;;;;2239473;55;21000;-84
2021/08/23 04:33:22;;;;;;;2.30;0.80;;;20.60;59.80;;;;;;2255272;55;21000;-84
2021/08/23 04:35:48;;;;;;;1.45;0.57;;;20.60;59.90;;;;;;2467970;55;21018;-85
2021/08/23 04:38:15;;;;;;;2.03;0.75;;;20.60;59.90;;;;;;2461838;55;20960;-84
2021/08/23 04:40:41;;;;;;;2.15;0.93;;;20.60;59.90;;;;;;2476159;55;20954;-83
2021/08/23 04:43:08;;;;;;;1.85;0.70;;;20.60;59.90;;;;;;2425822;55;21029;-84
2021/08/23 04:45:34;;;;;;;3.08;1.00;;;20.60;59.90;;;;;;2235914;55;20867;-84
2021/08/23 04:48:00;;;;;;;2.85;0.90;;;20.60;59.90;;;;;;2259483;55;20997;-85
2021/08/23 04:50:27;;;;;;;1.87;0.90;;;20.60;59.90;;;;;;2443563;55;20952;-84
2021/08/23 04:52:53;;;;;;;1.83;0.85;;;20.60;59.90;;;;;;2446624;55;21447;-85
2021/08/23 04:55:20;;;;;;;2.62;0.90;;;20.60;59.90;;;;;;2226235;55;20968;-84
2021/08/23 04:57:46;;;;;;;2.05;0.80;;;20.60;59.80;;;;;;2476377;55;20963;-82
2021/08/23 05:00:13;;;;;;;2.58;0.80;;;20.60;59.90;;;;;;2451234;55;21040;-84
2021/08/23 05:02:40;;;;;;;8.07;1.10;;;20.50;59.80;;;;;;2226197;55;22105;-85
2021/08/23 05:05:06;;;;;;;3.17;0.93;;;20.50;59.80;;;;;;2476316;55;20942;-84
2021/08/23 05:07:33;;;;;;;2.17;0.70;;;20.50;59.80;;;;;;2459401;55;20974;-83
2021/08/23 05:10:00;;;;;;;3.45;0.90;;;20.50;59.80;;;;;;2241528;55;20979;-83
2021/08/23 05:12:26;;;;;;;2.30;1.02;;;20.50;59.90;;;;;;2446249;55;20996;-85
2021/08/23 05:14:52;;;;;;;2.97;0.85;;;20.50;59.90;;;;;;2226477;55;21060;-85
2021/08/23 05:17:19;;;;;;;3.08;1.20;;;20.50;59.90;;;;;;2236876;55;20993;-84
2021/08/23 05:19:45;;;;;;;1.80;0.70;;;20.50;60.00;;;;;;2249846;55;20981;-84
2021/08/23 05:22:11;;;;;;;2.37;0.80;;;20.50;60.00;;;;;;2469571;54;22132;-84
2021/08/23 05:24:38;;;;;;;2.10;0.80;;;20.60;60.10;;;;;;2476334;55;21046;-84
2021/08/23 05:27:04;;;;;;;2.65;0.90;;;20.60;60.10;;;;;;2253198;55;21005;-85
2021/08/23 05:29:30;;;;;;;4.10;0.90;;;20.60;60.10;;;;;;2457635;55;21107;-84
2021/08/23 05:31:57;;;;;;;2.55;0.90;;;20.40;59.90;;;;;;2471053;55;20986;-85
2021/08/23 05:34:23;;;;;;;2.72;0.73;;;20.60;60.50;;;;;;2247290;55;20998;-84
2021/08/23 05:36:50;;;;;;;2.10;0.73;;;20.70;60.70;;;;;;2468354;55;21045;-86
2021/08/23 05:39:16;;;;;;;2.33;0.80;;;20.70;60.10;;;;;;2244788;55;20944;-85
2021/08/23 05:41:42;;;;;;;2.67;0.80;;;20.60;60.10;;;;;;2446628;55;21008;-84
2021/08/23 05:44:09;;;;;;;2.30;0.80;;;20.80;60.40;;;;;;2459036;55;20967;-84
2021/08/23 05:46:35;;;;;;;2.30;0.82;;;20.60;60.20;;;;;;2251766;55;21119;-85
2021/08/23 05:49:01;;;;;;;1.95;0.93;;;20.70;60.30;;;;;;2449014;55;21468;-84
2021/08/23 05:51:28;;;;;;;2.65;0.80;;;20.70;60.30;;;;;;2226509;55;22426;-83
2021/08/23 05:53:54;;;;;;;1.60;0.70;;;20.70;60.20;;;;;;2447317;55;20972;-83
2021/08/23 05:56:21;;;;;;;2.10;0.70;;;20.80;60.30;;;;;;2446980;55;21013;-84
2021/08/23 05:58:47;;;;;;;1.83;0.80;;;20.80;60.30;;;;;;2247994;55;20967;-85
2021/08/23 06:01:13;;;;;;;2.05;0.70;;;20.80;60.20;;;;;;2455545;55;20999;-86
2021/08/23 06:03:40;;;;;;;1.58;0.77;;;20.80;60.20;;;;;;2477713;55;21031;-83
2021/08/23 06:06:06;;;;;;;1.42;0.57;;;20.90;60.20;;;;;;2258432;55;20990;-82
2021/08/23 06:08:33;;;;;;;2.00;0.77;;;20.90;60.20;;;;;;2227484;55;20944;-84
2021/08/23 06:11:00;;;;;;;3.87;1.05;;;20.90;60.10;;;;;;2446676;55;20944;-84
2021/08/23 06:13:27;;;;;;;2.67;1.08;;;20.90;60.10;;;;;;2225135;55;21001;-84
2021/08/23 06:15:54;;;;;;;1.87;0.90;;;21.00;60.10;;;;;;2445855;55;20940;-84
2021/08/23 06:18:21;;;;;;;2.53;0.80;;;21.00;60.10;;;;;;2253378;55;20996;-84
2021/08/23 06:20:47;;;;;;;3.05;1.02;;;21.00;60.10;;;;;;2226062;55;20952;-82
2021/08/23 06:23:14;;;;;;;2.10;0.90;;;21.00;60.10;;;;;;2262547;55;21002;-83
2021/08/23 06:25:40;;;;;;;2.97;1.05;;;21.00;60.10;;;;;;2228269;55;20956;-84
2021/08/23 06:28:07;;;;;;;1.98;0.80;;;21.00;60.10;;;;;;2446583;55;21468;-83
2021/08/23 06:30:33;;;;;;;2.78;0.90;;;21.10;60.20;;;;;;2225675;55;20996;-83
2021/08/23 06:33:00;;;;;;;2.05;0.80;;;21.00;60.10;;;;;;2236000;55;20974;-83
2021/08/23 06:35:26;;;;;;;3.37;0.80;;;21.10;60.30;;;;;;2467570;55;20960;-85
2021/08/23 06:37:52;;;;;;;2.65;0.62;;;21.20;60.40;;;;;;2226208;55;21481;-84
2021/08/23 06:40:19;;;;;;;2.25;0.77;;;21.20;60.50;;;;;;2446507;55;20952;-83
2021/08/23 06:42:46;;;;;;;2.83;1.00;;;21.20;60.40;;;;;;2225304;55;20948;-84
2021/08/23 06:45:12;;;;;;;2.40;0.90;;;21.30;60.40;;;;;;2232899;55;21039;-84
2021/08/23 06:47:39;;;;;;;3.22;1.10;;;21.30;60.30;;;;;;2474735;55;20939;-83
2021/08/23 06:50:06;;;;;;;2.80;1.17;;;21.30;60.20;;;;;;2474683;55;21008;-85
2021/08/23 06:52:32;;;;;;;2.00;0.73;;;21.40;60.20;;;;;;2476581;54;21050;-84
2021/08/23 06:54:59;;;;;;;2.37;0.82;;;21.40;60.00;;;;;;2452530;55;21036;-82
2021/08/23 06:57:25;;;;;;;4.12;1.00;;;21.40;60.00;;;;;;2468891;55;20964;-83
2021/08/23 06:59:52;;;;;;;3.20;0.88;;;21.50;59.90;;;;;;2263921;55;21098;-84
2021/08/23 07:02:19;;;;;;;2.22;0.90;;;21.50;60.10;;;;;;2227748;55;21981;-83
2021/08/23 07:04:49;;;;;;;1.45;0.80;;;21.50;59.80;;;;;;2479321;55;20989;-83
2021/08/23 07:07:18;;;;;;;2.87;0.90;;;21.50;59.80;;;;;;2477024;55;20990;-82
2021/08/23 07:09:45;;;;;;;3.17;1.00;;;21.60;59.90;;;;;;2451053;55;21020;-84
2021/08/23 07:12:11;;;;;;;2.15;1.00;;;21.50;59.80;;;;;;2474098;55;21030;-83
2021/08/23 07:14:40;;;;;;;2.33;1.20;;;21.60;59.80;;;;;;2447825;55;20946;-85
2021/08/23 07:17:07;;;;;;;1.95;0.80;;;21.60;59.70;;;;;;2254050;55;21037;-86
2021/08/23 07:19:34;;;;;;;2.28;1.00;;;21.60;59.70;;;;;;2253384;55;20999;-83
2021/08/23 07:22:15;;;;;;;2.83;1.10;;;21.70;59.70;;;;;;2453208;55;21923;-85
2021/08/23 07:24:41;;;;;;;2.97;1.20;;;21.60;59.50;;;;;;2447386;55;22051;-83
2021/08/23 07:27:07;;;;;;;2.97;1.08;;;21.70;59.50;;;;;;2254470;55;20966;-85
2021/08/23 07:29:34;;;;;;;2.33;0.95;;;21.70;59.50;;;;;;2448472;55;21032;-84
2021/08/23 07:32:00;;;;;;;3.67;1.10;;;21.60;59.40;;;;;;2474154;54;20954;-83
2021/08/23 07:34:27;;;;;;;2.55;1.00;;;21.60;59.50;;;;;;2455045;55;21072;-84
2021/08/23 07:36:53;;;;;;;4.03;0.98;;;21.70;59.50;;;;;;2245337;55;21189;-84
2021/08/23 07:39:19;;;;;;;2.78;1.02;;;21.60;59.30;;;;;;2446385;55;20952;-84
2021/08/23 07:41:45;;;;;;;2.75;1.30;;;21.60;59.20;;;;;;2465276;54;21021;-83
2021/08/23 07:44:12;;;;;;;2.87;1.00;;;21.60;59.20;;;;;;2243434;55;22058;-84
2021/08/23 07:46:38;;;;;;;2.17;0.93;;;21.60;59.20;;;;;;2446287;55;21024;-85
2021/08/23 07:49:04;;;;;;;8.15;2.75;;;21.60;59.30;;;;;;2253716;55;22029;-84
2021/08/23 07:51:31;;;;;;;8.85;3.03;;;21.50;59.40;;;;;;2447999;55;21019;-85
2021/08/23 07:53:57;;;;;;;6.47;2.50;;;21.50;59.50;;;;;;2477531;55;20990;-85
2021/08/23 07:56:23;;;;;;;6.00;2.30;;;21.50;59.50;;;;;;2249076;55;21169;-83
2021/08/23 07:58:50;;;;;;;4.97;1.95;;;21.60;59.70;;;;;;2475925;55;21061;-83
2021/08/23 08:01:22;;;;;;;5.53;2.33;;;21.50;59.60;;;;;;2461314;55;20965;-84
2021/08/23 08:03:49;;;;;;;4.50;1.70;;;21.60;59.80;;;;;;2477121;55;20958;-84
2021/08/23 08:06:16;;;;;;;4.05;1.50;;;21.60;59.80;;;;;;2444655;55;21491;-85
2021/08/23 08:08:42;;;;;;;3.30;1.23;;;21.60;59.70;;;;;;2454664;55;20989;-84
2021/08/23 08:11:09;;;;;;;2.17;0.88;;;21.60;59.60;;;;;;2248068;55;21016;-84
2021/08/23 08:13:35;;;;;;;3.22;0.90;;;21.70;59.60;;;;;;2239764;55;20942;-85
2021/08/23 08:16:02;;;;;;;2.25;1.00;;;21.70;59.60;;;;;;2463760;55;20993;-83
2021/08/23 08:18:28;;;;;;;3.20;0.88;;;21.70;59.60;;;;;;2254808;55;21001;-83
2021/08/23 08:20:56;;;;;;;2.95;1.10;;;21.80;59.60;;;;;;2230048;55;21071;-84
2021/08/23 08:23:23;;;;;;;4.00;1.10;;;21.80;59.50;;;;;;2475858;55;21014;-85
2021/08/23 08:25:49;;;;;;;2.50;1.00;;;21.80;59.40;;;;;;2227422;55;21041;-85
2021/08/23 08:28:15;;;;;;;3.03;1.10;;;21.90;59.50;;;;;;2252044;55;22072;-85
2021/08/23 08:30:41;;;;;;;2.60;1.23;;;21.90;59.50;;;;;;2424793;55;22010;-85
2021/08/23 08:33:08;;;;;;;2.95;1.08;;;21.90;59.40;;;;;;2250130;55;21057;-83
2021/08/23 08:35:34;;;;;;;3.65;1.00;;;22.00;59.40;;;;;;2447081;55;21000;-85
2021/08/23 08:38:01;;;;;;;2.47;0.90;;;22.00;59.30;;;;;;2252189;55;22156;-85
2021/08/23 08:40:27;;;;;;;2.03;0.90;;;22.00;59.40;;;;;;2475048;55;21593;-85
2021/08/23 08:42:54;;;;;;;2.40;0.80;;;22.10;59.60;;;;;;2251897;55;21397;-86
2021/08/23 08:45:21;;;;;;;2.55;1.02;;;22.20;59.90;;;;;;2255441;55;20938;-83
2021/08/23 08:47:47;;;;;;;3.10;1.20;;;22.20;59.70;;;;;;2230844;55;20975;-83
2021/08/23 08:50:16;;;;;;;3.83;1.00;;;22.30;59.80;;;;;;2472761;55;21117;-83
2021/08/23 08:52:45;;;;;;;2.15;0.95;;;22.40;59.90;;;;;;2244422;55;20969;-82
2021/08/23 08:55:12;;;;;;;2.47;1.17;;;22.50;59.80;;;;;;2236637;55;21954;-84
2021/08/23 08:57:39;;;;;;;5.53;1.40;;;22.60;59.70;;;;;;2449531;55;20980;-83
2021/08/23 09:00:06;;;;;;;4.20;1.10;;;22.70;59.40;;;;;;2249078;55;20965;-85
2021/08/23 09:02:33;;;;;;;1.95;0.93;;;22.80;59.20;;;;;;2223581;55;21667;-84
2021/08/23 09:05:03;;;;;;;2.55;0.90;;;22.80;59.20;;;;;;2443056;55;21016;-83
2021/08/23 09:07:39;;;;;;;3.50;1.17;;;22.90;59.10;;;;;;2223286;55;21577;-85
2021/08/23 09:10:26;;;;;;;3.90;1.10;;;23.00;58.70;;;;;;2455017;55;22089;-85
2021/08/23 09:13:05;;;;;;;3.22;1.10;;;23.10;58.20;;;;;;2455178;54;20952;-83
2021/08/23 09:15:33;;;;;;;3.28;1.20;;;23.10;58.00;;;;;;2224020;55;21064;-84
2021/08/23 09:18:09;;;;;;;3.17;1.10;;;23.10;58.30;;;;;;2453252;55;22372;-84
2021/08/23 09:20:36;;;;;;;3.37;1.10;;;23.20;58.20;;;;;;2461466;55;21287;-84
2021/08/23 09:23:10;;;;;;;3.30;1.05;;;23.20;58.20;;;;;;2443617;55;20959;-83
2021/08/23 09:25:36;;;;;;;2.83;1.08;;;23.20;58.00;;;;;;2444524;55;20988;-83
2021/08/23 09:28:05;;;;;;;2.85;1.00;;;23.20;58.00;;;;;;2448414;55;20968;-85
2021/08/23 09:30:32;;;;;;;3.30;1.10;;;23.30;58.10;;;;;;2470555;55;21008;-84
2021/08/23 09:33:04;;;;;;;2.80;1.02;;;23.30;57.80;;;;;;2444738;55;21064;-84
2021/08/23 09:35:35;;;;;;;2.90;1.15;;;23.40;57.90;;;;;;2474788;55;20961;-85
2021/08/23 09:38:11;;;;;;;3.85;1.25;;;23.40;58.00;;;;;;2443817;55;21048;-85
2021/08/23 09:40:37;;;;;;;2.60;0.90;;;23.40;57.90;;;;;;2443431;55;22604;-82
2021/08/23 09:43:16;;;;;;;3.37;1.00;;;23.40;57.80;;;;;;2223172;55;20968;-84
2021/08/23 09:46:00;;;;;;;3.35;1.17;;;23.40;57.90;;;;;;2450833;55;21040;-84
2021/08/23 09:48:26;;;;;;;3.83;1.27;;;23.50;57.70;;;;;;2241637;55;20988;-85
2021/08/23 09:50:52;;;;;;;2.50;1.00;;;23.50;57.80;;;;;;2445512;55;22064;-87
2021/08/23 09:53:20;;;;;;;2.55;0.90;;;23.50;57.70;;;;;;2460104;55;22132;-84
2021/08/23 09:55:48;;;;;;;2.22;1.10;;;23.50;57.70;;;;;;2461167;55;20964;-85
2021/08/23 09:58:15;;;;;;;2.70;1.10;;;23.60;57.70;;;;;;2444864;55;21235;-84
2021/08/23 10:00:42;;;;;;;2.30;1.00;;;23.60;57.60;;;;;;2476702;55;20962;-84
2021/08/23 10:03:15;;;;;;;3.83;1.27;;;23.60;57.70;;;;;;2472932;55;20989;-85
2021/08/23 10:05:43;;;;;;;3.28;1.02;;;23.60;57.70;;;;;;2227624;55;20968;-84
2021/08/23 10:08:14;;;;;;;3.30;1.25;;;23.70;57.70;;;;;;2475316;54;21073;-84
2021/08/23 10:10:40;;;;;;;4.40;1.12;;;23.70;57.70;;;;;;2224700;55;20971;-85
2021/08/23 10:13:07;;;;;;;2.70;1.17;;;23.70;57.70;;;;;;2455694;55;21030;-82
2021/08/23 10:15:33;;;;;;;4.62;1.27;;;23.70;57.60;;;;;;2245066;55;21012;-85
2021/08/23 10:18:02;;;;;;;3.00;1.05;;;23.70;57.60;;;;;;2235019;55;20985;-85
2021/08/23 10:20:28;;;;;;;3.17;1.30;;;23.70;57.50;;;;;;2468154;55;20953;-84
2021/08/23 10:22:55;;;;;;;3.20;1.15;;;23.80;57.60;;;;;;2452077;55;20998;-83
2021/08/23 10:25:21;;;;;;;2.55;0.90;;;23.70;57.60;;;;;;2467393;55;21056;-82
2021/08/23 10:27:47;;;;;;;2.78;1.10;;;23.70;57.50;;;;;;2444313;55;20992;-83
2021/08/23 10:30:24;;;;;;;2.12;1.00;;;23.80;57.70;;;;;;2472019;55;22120;-83
2021/08/23 10:32:51;;;;;;;3.87;1.17;;;23.80;57.60;;;;;;2470028;55;21199;-83
2021/08/23 10:35:24;;;;;;;2.20;0.90;;;23.80;57.70;;;;;;2456735;55;21265;-84
2021/08/23 10:37:51;;;;;;;1.90;0.85;;;23.80;57.50;;;;;;2222712;55;20964;-85
2021/08/23 10:40:33;;;;;;;1.73;0.80;;;23.80;57.50;;;;;;2249385;55;20969;-84
2021/08/23 10:43:14;;;;;;;1.95;0.70;;;23.80;57.50;;;;;;2234982;55;20995;-85
2021/08/23 10:45:41;;;;;;;1.27;0.55;;;23.80;56.90;;;;;;2260543;55;20990;-85
2021/08/23 10:48:20;;;;;;;1.27;0.55;;;23.80;57.20;;;;;;2463567;55;22194;-83
2021/08/23 10:51:03;;;;;;;1.10;0.43;;;23.80;57.30;;;;;;2466234;55;21097;-81
2021/08/23 10:53:37;;;;;;;1.05;0.40;;;23.80;57.20;;;;;;2462303;55;20968;-81
2021/08/23 10:56:17;;;;;;;1.60;0.50;;;23.80;57.20;;;;;;2471893;55;21062;-81
2021/08/23 10:58:44;;;;;;;1.10;0.40;;;23.80;57.20;;;;;;2221164;55;21019;-81
2021/08/23 11:01:22;;;;;;;1.35;0.50;;;23.80;57.20;;;;;;2221314;55;20937;-81
2021/08/23 11:04:05;;;;;;;1.25;0.50;;;23.90;57.10;;;;;;2233786;55;21025;-81
2021/08/23 11:06:35;;;;;;;1.27;0.50;;;23.90;57.00;;;;;;2233355;55;22046;-81
2021/08/23 11:09:11;;;;;;;1.58;0.55;;;23.90;57.00;;;;;;2470481;54;21490;-81
2021/08/23 11:11:39;;;;;;;1.05;0.35;;;23.90;56.80;;;;;;2449816;55;21444;-81
2021/08/23 11:14:21;;;;;;;1.33;0.62;;;23.90;56.90;;;;;;2421705;55;20944;-81
2021/08/23 11:16:53;;;;;;;1.40;0.50;;;23.90;56.60;;;;;;2466169;55;21069;-80
2021/08/23 11:19:24;;;;;;;1.55;0.50;;;23.90;56.40;;;;;;2228890;55;22006;-80
2021/08/23 11:21:59;;;;;;;3.75;0.50;;;23.80;56.20;;;;;;2465500;55;20992;-80
2021/08/23 11:24:30;;;;;;;1.30;0.50;;;23.80;56.40;;;;;;2441588;55;21050;-80
2021/08/23 11:27:01;;;;;;;1.25;0.45;;;23.80;56.20;;;;;;2248810;55;22228;-80
2021/08/23 11:29:32;;;;;;;1.00;0.40;;;23.70;56.20;;;;;;2461957;55;20998;-80
2021/08/23 11:32:03;;;;;;;0.80;0.40;;;23.70;56.20;;;;;;2234385;55;21032;-79
2021/08/23 11:34:30;;;;;;;1.02;0.40;;;23.60;56.30;;;;;;2467224;55;20956;-79
2021/08/23 11:37:03;;;;;;;1.40;0.60;;;23.60;56.30;;;;;;2442288;55;20960;-79
2021/08/23 11:39:33;;;;;;;1.77;0.70;;;23.60;56.30;;;;;;2220058;55;20972;-80
2021/08/23 11:42:01;;;;;;;2.03;0.60;;;23.60;56.20;;;;;;2252191;55;21002;-80
2021/08/23 11:44:28;;;;;;;1.15;0.45;;;23.50;56.30;;;;;;2443188;55;20960;-80
2021/08/23 11:46:58;;;;;;;1.10;0.40;;;23.50;56.50;;;;;;2237259;55;21014;-81
2021/08/23 11:49:31;;;;;;;2.08;0.60;;;23.50;56.60;;;;;;2247506;55;21021;-81
2021/08/23 11:51:58;;;;;;;1.85;0.60;;;23.50;56.80;;;;;;2458677;55;20968;-80
2021/08/23 11:54:26;;;;;;;1.98;0.60;;;23.50;56.70;;;;;;2252625;55;21125;-81
2021/08/23 11:57:04;;;;;;;1.48;0.60;;;23.60;56.80;;;;;;2445402;55;21104;-80
2021/08/23 11:59:30;;;;;;;1.12;0.50;;;23.60;56.80;;;;;;2466195;55;20952;-80
2021/08/23 12:02:07;;;;;;;1.77;0.60;;;23.60;56.90;;;;;;2247671;55;21072;-80
2021/08/23 12:04:33;;;;;;;1.70;0.60;;;23.60;56.90;;;;;;2242755;55;21004;-80
2021/08/23 12:06:59;;;;;;;1.45;0.60;;;23.60;57.00;;;;;;2235746;55;22258;-80
2021/08/23 12:09:26;;;;;;;1.67;0.73;;;23.70;57.10;;;;;;2220341;55;20964;-79
2021/08/23 12:11:52;;;;;;;2.17;0.93;;;23.70;57.20;;;;;;2219457;55;21103;-80
2021/08/23 12:14:19;;;;;;;3.53;1.00;;;23.70;57.20;;;;;;2441420;55;22080;-80
2021/08/23 12:16:46;;;;;;;2.15;0.70;;;23.70;57.20;;;;;;2235772;55;21157;-80
2021/08/23 12:19:12;;;;;;;1.77;0.70;;;23.70;57.20;;;;;;2239140;55;20968;-80
2021/08/23 12:21:39;;;;;;;1.48;0.60;;;23.70;57.20;;;;;;2220761;55;21051;-80
2021/08/23 12:24:42;;;;;;;1.20;0.52;;;23.70;57.40;;;;;;2219412;55;21434;-80
2021/08/23 12:27:12;;;;;;;1.90;0.60;;;23.70;57.70;;;;;;2220157;55;20952;-80
2021/08/23 12:29:41;;;;;;;1.80;0.57;;;23.70;57.60;;;;;;2460339;55;20998;-80
2021/08/23 12:32:11;;;;;;;1.40;0.60;;;23.70;57.70;;;;;;2240891;55;21008;-80
2021/08/23 12:34:48;;;;;;;1.42;0.50;;;23.70;57.80;;;;;;2240288;55;20976;-81
2021/08/23 12:37:16;;;;;;;1.42;0.60;;;23.70;57.90;;;;;;2247100;55;20954;-80
2021/08/23 12:39:44;;;;;;;1.08;0.47;;;23.70;57.70;;;;;;2247491;55;21576;-80
2021/08/23 12:42:11;;;;;;;1.52;0.62;;;23.70;57.60;;;;;;2222045;55;21057;-80
2021/08/23 12:44:37;;;;;;;1.90;0.60;;;23.60;57.70;;;;;;2220193;55;21028;-80
2021/08/23 12:47:04;;;;;;;1.62;0.60;;;23.60;57.80;;;;;;2458775;55;20958;-80
2021/08/23 12:49:31;;;;;;;1.90;0.80;;;23.60;57.90;;;;;;2453287;55;21344;-80
2021/08/23 12:51:57;;;;;;;1.62;0.70;;;23.50;57.90;;;;;;2242668;55;20946;-81
2021/08/23 12:54:24;;;;;;;2.67;0.80;;;23.60;58.00;;;;;;2225826;55;21078;-80